createdAt,value
2023-05-14T03:08:01.784Z,14.60
2023-05-14T03:24:28.757Z,14.60
2023-05-14T03:26:55.482Z,14.50
2023-05-14T03:29:22.126Z,14.50
2023-05-14T03:31:49.943Z,14.50
2023-05-14T04:12:55.663Z,14.20
2023-05-14T04:15:22.457Z,14.20
2023-05-14T04:17:49.083Z,14.20
2023-05-14T04:20:15.787Z,14.20
2023-05-14T06:38:32.270Z,15.20
2023-05-14T07:00:15.563Z,15.70
2023-05-14T07:02:42.315Z,15.80
2023-05-14T07:05:09.327Z,15.90
2023-05-14T07:07:36.016Z,16.00
2023-05-14T07:10:03.044Z,16.10
2023-05-14T07:12:29.707Z,16.20
2023-05-14T07:42:49.122Z,16.80
2023-05-14T07:50:06.667Z,17.10
2023-05-14T07:52:33.341Z,17.20
2023-05-14T07:55:01.346Z,17.20
2023-05-14T07:57:27.981Z,17.30
2023-05-14T08:11:28.065Z,17.70
2023-05-14T08:13:54.791Z,17.80
2023-05-14T08:16:21.423Z,17.80
2023-05-14T08:26:30.618Z,18.10
2023-05-14T08:28:57.310Z,18.20
2023-05-14T08:31:24.057Z,18.30
2023-05-14T11:14:22.647Z,26.90
2023-05-14T11:16:50.618Z,27.10
2023-05-14T11:19:22.032Z,27.30
2023-05-14T11:21:48.787Z,27.40
2023-05-14T11:24:15.612Z,27.60
2023-05-14T11:26:42.260Z,27.70
2023-05-14T12:25:01.500Z,29.80
2023-05-14T12:27:30.242Z,30.00
2023-05-14T12:32:36.359Z,30.20
2023-05-14T12:35:03.457Z,30.40
2023-05-14T12:37:31.264Z,30.40
2023-05-14T12:47:40.359Z,30.50
2023-05-14T12:50:07.676Z,30.50
2023-05-14T12:52:38.666Z,30.50
2023-05-14T12:55:10.028Z,30.60
2023-05-14T12:57:38.890Z,30.60
2023-05-14T13:15:35.392Z,30.60
2023-05-14T13:18:02.134Z,30.50
2023-05-14T13:20:30.912Z,30.60
2023-05-14T17:28:18.809Z,23.50
2023-05-14T17:30:45.548Z,23.30
2023-05-14T17:33:12.234Z,23.20
2023-05-14T17:35:39.064Z,23.10
2023-05-14T17:38:05.971Z,23.10
2023-05-14T19:02:33.297Z,19.80
2023-05-14T19:05:00.063Z,19.70
2023-05-14T19:07:27.598Z,19.60
2023-05-14T19:09:54.215Z,19.50
2023-05-14T19:12:20.896Z,19.40
2023-05-14T21:53:11.395Z,15.60
2023-05-14T21:55:38.392Z,15.50
2023-05-14T21:58:06.399Z,15.50
2023-05-14T22:00:33.049Z,15.50
2023-05-14T22:02:59.983Z,15.40
